Time;durP1;ratioP1;P1;durP2;ratioP2;P2;SDS_P1;SDS_P2;PMS_P1;PMS_P2;Temp;Humidity;BMP_temperature;BMP_pressure;BME280_temperature;BME280_humidity;BME280_pressure;Samples;Min_cycle;Max_cycle;Signal;HPM_P1;HPM_P2
2023/01/22 00:02:25;;;;;;;10.55;3.47;;;0.50;99.90;;;;;;5083227;28;20054;-66
2023/01/22 00:04:51;;;;;;;7.85;3.85;;;0.50;99.90;;;;;;5046555;28;20036;-66
2023/01/22 00:07:16;;;;;;;8.50;3.93;;;0.50;99.90;;;;;;5080243;28;20318;-66
2023/01/22 00:09:42;;;;;;;9.00;4.03;;;0.50;99.90;;;;;;5086934;28;20413;-66
2023/01/22 00:12:09;;;;;;;7.63;3.83;;;0.50;99.90;;;;;;5061213;28;20123;-66
2023/01/22 00:14:35;;;;;;;8.93;3.95;;;0.40;99.90;;;;;;5089591;28;20051;-67
2023/01/22 00:17:00;;;;;;;6.53;3.67;;;0.40;99.90;;;;;;5075199;28;20040;-66
2023/01/22 00:19:26;;;;;;;9.33;4.63;;;0.40;99.90;;;;;;5063155;28;20436;-67
2023/01/22 00:21:52;;;;;;;8.03;3.83;;;0.40;99.90;;;;;;5060188;28;20040;-66
2023/01/22 00:24:17;;;;;;;8.27;3.33;;;0.40;99.90;;;;;;5088201;28;20502;-66
2023/01/22 00:26:44;;;;;;;8.70;4.37;;;0.40;99.90;;;;;;5087715;28;20044;-66
2023/01/22 00:29:10;;;;;;;8.55;3.85;;;0.40;99.90;;;;;;5082235;28;20401;-67
2023/01/22 00:31:36;;;;;;;8.05;3.65;;;0.40;99.90;;;;;;5062426;28;20075;-67
2023/01/22 00:34:02;;;;;;;11.27;4.70;;;0.40;99.90;;;;;;5086054;28;20066;-66
2023/01/22 00:36:28;;;;;;;10.43;4.05;;;0.30;99.90;;;;;;5085826;28;20036;-66
2023/01/22 00:38:53;;;;;;;7.30;4.07;;;0.40;99.90;;;;;;5085781;28;20186;-66
2023/01/22 00:41:19;;;;;;;9.10;3.90;;;0.40;99.90;;;;;;5076922;28;20047;-67
2023/01/22 00:43:46;;;;;;;7.17;4.00;;;0.40;99.90;;;;;;5073796;28;20532;-67
2023/01/22 00:46:14;;;;;;;9.75;3.50;;;0.40;99.90;;;;;;5068369;28;20668;-66
2023/01/22 00:48:40;;;;;;;8.48;3.88;;;0.30;99.90;;;;;;5083237;28;20110;-66
2023/01/22 00:51:09;;;;;;;8.73;4.40;;;0.40;99.90;;;;;;5088612;28;20043;-66
2023/01/22 00:53:40;;;;;;;7.80;3.80;;;0.40;99.90;;;;;;5091568;28;20744;-66
2023/01/22 00:56:06;;;;;;;8.02;4.30;;;0.40;99.90;;;;;;5088085;28;20092;-66
2023/01/22 00:58:32;;;;;;;7.55;3.58;;;0.40;99.90;;;;;;5075644;22;20035;-65
2023/01/22 01:01:00;;;;;;;6.93;3.75;;;0.40;99.90;;;;;;5085150;28;20042;-65
2023/01/22 01:03:26;;;;;;;7.25;3.75;;;0.40;99.90;;;;;;5089807;28;20040;-66
2023/01/22 01:06:03;;;;;;;6.93;3.47;;;0.40;99.90;;;;;;5085403;28;20068;-65
2023/01/22 01:08:31;;;;;;;6.40;3.53;;;0.40;99.90;;;;;;5081951;28;20489;-65
2023/01/22 01:11:00;;;;;;;6.70;3.83;;;0.40;99.90;;;;;;5085346;28;20047;-66
2023/01/22 01:13:27;;;;;;;6.65;3.90;;;0.30;99.90;;;;;;5082819;28;20063;-65
2023/01/22 01:16:05;;;;;;;8.20;3.22;;;0.40;99.90;;;;;;5083787;28;20040;-65
2023/01/22 01:18:32;;;;;;;8.90;3.78;;;0.30;99.90;;;;;;5082777;28;20051;-66
2023/01/22 01:20:58;;;;;;;;;;;0.30;99.90;;;;;;5071397;28;20040;-65
2023/01/22 01:23:25;;;;;;;5.25;3.05;;;0.40;99.90;;;;;;5083520;28;20305;-65
2023/01/22 01:25:51;;;;;;;7.25;3.67;;;0.30;99.90;;;;;;5085332;28;20126;-65
2023/01/22 01:28:17;;;;;;;6.70;3.53;;;0.30;99.90;;;;;;5081148;28;20511;-65
2023/01/22 01:30:43;;;;;;;7.47;3.63;;;0.30;99.90;;;;;;5071476;28;20036;-66
2023/01/22 01:33:09;;;;;;;7.22;3.22;;;0.30;99.90;;;;;;5086382;28;20075;-65
2023/01/22 01:35:35;;;;;;;5.90;3.00;;;0.30;99.90;;;;;;5084022;28;20070;-65
2023/01/22 01:38:01;;;;;;;7.40;3.57;;;0.30;99.90;;;;;;5081112;28;20505;-65
2023/01/22 01:40:26;;;;;;;9.15;3.85;;;0.30;99.90;;;;;;5082332;28;20035;-65
2023/01/22 01:42:52;;;;;;;9.87;4.13;;;0.30;99.90;;;;;;5084212;28;20485;-65
2023/01/22 01:45:28;;;;;;;7.80;4.20;;;0.20;99.90;;;;;;5083455;28;20346;-65
2023/01/22 01:48:14;;;;;;;7.65;3.60;;;0.20;99.90;;;;;;5079284;28;20540;-65
2023/01/22 01:50:41;;;;;;;6.60;3.65;;;0.20;99.90;;;;;;5081556;28;20497;-66
2023/01/22 01:53:07;;;;;;;10.07;4.13;;;0.20;99.90;;;;;;5085879;28;20496;-65
2023/01/22 01:55:34;;;;;;;11.32;4.00;;;0.10;99.90;;;;;;5084525;28;20077;-65
2023/01/22 01:58:05;;;;;;;10.18;4.18;;;0.10;99.90;;;;;;5085402;28;20040;-65
2023/01/22 02:00:35;;;;;;;9.05;3.88;;;0.10;99.90;;;;;;5082409;28;20040;-66
2023/01/22 02:03:01;;;;;;;11.18;3.90;;;0.10;99.90;;;;;;5081452;28;20032;-65
2023/01/22 02:05:33;;;;;;;8.68;4.15;;;0.10;99.90;;;;;;5083760;28;20194;-65
2023/01/22 02:07:59;;;;;;;11.50;4.38;;;0.10;99.90;;;;;;5077924;28;20044;-66
2023/01/22 02:10:25;;;;;;;7.13;3.93;;;0.10;99.90;;;;;;5082608;28;20484;-66
2023/01/22 02:12:54;;;;;;;8.90;3.70;;;0.10;99.90;;;;;;5081372;28;20042;-65
2023/01/22 02:15:20;;;;;;;11.10;4.43;;;0.10;99.90;;;;;;5078437;28;20382;-65
2023/01/22 02:17:47;;;;;;;9.60;4.43;;;0.20;99.90;;;;;;5084912;28;20611;-65
2023/01/22 02:20:13;;;;;;;;;;;0.20;99.90;;;;;;5090915;28;20473;-65
2023/01/22 02:22:39;;;;;;;8.05;3.75;;;0.30;99.90;;;;;;5084095;27;19920;-65
2023/01/22 02:25:06;;;;;;;12.98;5.30;;;0.30;99.90;;;;;;5084212;28;20043;-65
2023/01/22 02:27:32;;;;;;;8.50;3.58;;;0.30;99.90;;;;;;5085394;28;20101;-66
2023/01/22 02:29:57;;;;;;;8.50;4.23;;;0.40;99.90;;;;;;5082754;28;20360;-65
2023/01/22 02:32:23;;;;;;;10.83;4.13;;;0.40;99.90;;;;;;5083284;28;20048;-66
2023/01/22 02:34:49;;;;;;;8.07;3.60;;;0.40;99.90;;;;;;5084895;28;20040;-66
2023/01/22 02:37:15;;;;;;;10.20;4.67;;;0.40;99.90;;;;;;5080657;28;20028;-66
2023/01/22 02:39:41;;;;;;;11.88;4.95;;;0.50;99.90;;;;;;5088505;28;20060;-66
2023/01/22 02:42:08;;;;;;;11.83;4.03;;;0.50;99.90;;;;;;5079374;28;20080;-65
2023/01/22 02:44:33;;;;;;;11.07;4.97;;;0.50;99.90;;;;;;5085327;28;20288;-65
2023/01/22 02:47:00;;;;;;;9.30;3.53;;;0.50;99.90;;;;;;5088784;28;20055;-65
2023/01/22 02:49:25;;;;;;;8.50;4.20;;;0.50;99.90;;;;;;5094921;28;20090;-65
2023/01/22 02:51:51;;;;;;;9.67;4.33;;;0.50;99.90;;;;;;5086041;28;20611;-65
2023/01/22 02:54:17;;;;;;;9.93;5.63;;;0.60;99.90;;;;;;5088938;28;20036;-65
2023/01/22 02:56:42;;;;;;;10.20;4.93;;;0.60;99.90;;;;;;5088215;28;20063;-65
2023/01/22 02:59:08;;;;;;;9.47;5.10;;;0.60;99.90;;;;;;5083312;28;20127;-65
2023/01/22 03:01:34;;;;;;;10.93;5.37;;;0.60;99.90;;;;;;5081793;28;20462;-65
2023/01/22 03:04:09;;;;;;;10.03;4.37;;;0.60;99.90;;;;;;5092031;28;20057;-66
2023/01/22 03:06:39;;;;;;;8.30;4.35;;;0.70;99.90;;;;;;5088912;28;20112;-65
2023/01/22 03:09:06;;;;;;;11.98;4.70;;;0.70;99.90;;;;;;5088536;28;20511;-64
2023/01/22 03:11:33;;;;;;;9.32;4.90;;;0.70;99.90;;;;;;5084619;28;20032;-64
2023/01/22 03:22:14;;;;;;;10.00;4.30;;;0.70;99.90;;;;;;5083402;28;20508;-65
2023/01/22 03:24:43;;;;;;;12.88;5.50;;;0.80;99.90;;;;;;5085399;28;20164;-64
2023/01/22 03:27:09;;;;;;;8.90;4.43;;;0.80;99.90;;;;;;5083557;28;20071;-64
2023/01/22 03:29:37;;;;;;;8.50;4.05;;;0.80;99.90;;;;;;5087812;28;20051;-64
2023/01/22 03:32:06;;;;;;;7.72;4.03;;;0.80;99.90;;;;;;5084151;28;20055;-64
2023/01/22 03:34:33;;;;;;;10.52;3.83;;;0.80;99.90;;;;;;5086312;28;20123;-64
2023/01/22 03:36:59;;;;;;;10.13;4.55;;;0.80;99.90;;;;;;5084244;28;20117;-64
2023/01/22 03:39:25;;;;;;;8.47;3.33;;;0.80;99.90;;;;;;5078566;28;20052;-64
2023/01/22 03:41:51;;;;;;;7.20;3.33;;;0.80;99.90;;;;;;5077119;28;20052;-65
2023/01/22 03:44:17;;;;;;;6.97;3.13;;;0.80;99.90;;;;;;5084572;28;20417;-64
2023/01/22 03:46:42;;;;;;;6.03;3.23;;;0.80;99.90;;;;;;5091821;28;20110;-64
2023/01/22 03:49:11;;;;;;;8.47;3.03;;;0.80;99.90;;;;;;5080890;28;20040;-64
2023/01/22 03:51:37;;;;;;;4.82;3.00;;;0.80;99.90;;;;;;5087096;28;20085;-64
2023/01/22 03:54:03;;;;;;;7.40;3.10;;;0.80;99.90;;;;;;5095203;28;20731;-64
2023/01/22 03:56:29;;;;;;;7.90;3.60;;;0.90;99.90;;;;;;5085189;28;20075;-64
2023/01/22 03:58:55;;;;;;;7.20;3.30;;;0.90;99.90;;;;;;5089477;28;20067;-64
2023/01/22 04:01:23;;;;;;;9.32;3.42;;;0.80;99.90;;;;;;5089882;28;20455;-64
2023/01/22 04:03:49;;;;;;;5.97;2.80;;;0.80;99.90;;;;;;5086568;28;20052;-65
2023/01/22 04:06:16;;;;;;;5.68;2.50;;;0.90;99.90;;;;;;5077996;28;20083;-64
2023/01/22 04:08:44;;;;;;;3.88;2.33;;;0.90;99.90;;;;;;5085910;28;20101;-64
2023/01/22 04:11:11;;;;;;;4.90;2.40;;;1.00;99.90;;;;;;5078681;28;20517;-64
2023/01/22 04:13:38;;;;;;;6.22;3.05;;;0.90;99.90;;;;;;5084569;28;20080;-64
2023/01/22 04:16:05;;;;;;;6.15;2.90;;;1.00;99.90;;;;;;5082020;28;20079;-64
2023/01/22 04:18:30;;;;;;;6.05;2.58;;;1.10;99.90;;;;;;5086438;28;20036;-66
2023/01/22 04:20:56;;;;;;;4.07;2.57;;;1.00;99.90;;;;;;5079289;28;20526;-64
2023/01/22 04:23:23;;;;;;;6.03;2.60;;;1.10;99.90;;;;;;5090058;28;20028;-65
2023/01/22 04:25:49;;;;;;;7.25;2.65;;;1.10;99.90;;;;;;5084931;28;20052;-64
2023/01/22 04:28:15;;;;;;;6.85;1.88;;;1.20;99.90;;;;;;5086809;28;20086;-65
2023/01/22 04:30:42;;;;;;;5.30;2.50;;;1.20;99.90;;;;;;5080416;28;20577;-65
2023/01/22 04:33:09;;;;;;;4.78;2.47;;;1.20;99.90;;;;;;5086578;28;20361;-65
2023/01/22 04:35:35;;;;;;;;;;;1.20;99.90;;;;;;5068889;28;20497;-64
2023/01/22 04:38:02;;;;;;;6.07;2.50;;;1.20;99.90;;;;;;5087170;28;19920;-65
2023/01/22 04:40:27;;;;;;;6.25;2.47;;;1.30;99.90;;;;;;5082890;28;20039;-64
2023/01/22 04:42:53;;;;;;;5.10;2.00;;;1.30;99.90;;;;;;5081041;28;20390;-65
2023/01/22 04:45:19;;;;;;;6.90;2.40;;;1.30;99.90;;;;;;5087908;28;20047;-65
2023/01/22 04:47:47;;;;;;;5.57;2.23;;;1.40;99.90;;;;;;5086787;28;20518;-65
2023/01/22 04:50:21;;;;;;;4.68;2.42;;;1.40;99.90;;;;;;5083830;28;20405;-65
2023/01/22 04:52:48;;;;;;;4.82;2.72;;;1.40;99.90;;;;;;5085865;28;20055;-65
2023/01/22 04:55:14;;;;;;;7.47;2.85;;;1.40;99.90;;;;;;5081049;28;20047;-65
2023/01/22 04:57:39;;;;;;;6.77;3.17;;;1.40;99.90;;;;;;5088002;28;20039;-65
2023/01/22 05:00:07;;;;;;;6.40;2.80;;;1.40;99.90;;;;;;5078440;28;20115;-64
2023/01/22 05:02:32;;;;;;;6.82;2.70;;;1.40;99.90;;;;;;5083973;28;20115;-65
2023/01/22 05:04:58;;;;;;;6.87;2.33;;;1.40;99.90;;;;;;5086008;28;20116;-65
2023/01/22 05:07:24;;;;;;;5.70;2.40;;;1.40;99.90;;;;;;5082055;28;20036;-65
2023/01/22 05:09:49;;;;;;;4.70;2.23;;;1.40;99.90;;;;;;5082500;28;20032;-65
2023/01/22 05:12:15;;;;;;;5.57;2.33;;;1.40;99.90;;;;;;5079881;28;20448;-65
2023/01/22 05:14:41;;;;;;;5.43;3.23;;;1.40;99.90;;;;;;5084318;28;20047;-65
2023/01/22 05:17:07;;;;;;;4.47;2.07;;;1.50;99.90;;;;;;5085372;28;20046;-65
2023/01/22 05:19:34;;;;;;;;;;;1.50;99.90;;;;;;5077057;28;20059;-65
2023/01/22 05:22:00;;;;;;;6.80;2.25;;;1.50;99.90;;;;;;5080931;28;20308;-65
2023/01/22 05:24:26;;;;;;;4.55;2.22;;;1.50;99.90;;;;;;5084022;28;20044;-65
2023/01/22 05:26:51;;;;;;;6.33;2.70;;;1.50;99.90;;;;;;5093388;28;20097;-65
2023/01/22 05:29:17;;;;;;;7.73;3.50;;;1.50;99.90;;;;;;5085959;28;20439;-65
2023/01/22 05:31:43;;;;;;;4.40;2.50;;;1.50;99.90;;;;;;5082417;28;20082;-65
2023/01/22 05:34:08;;;;;;;4.10;1.90;;;1.50;99.90;;;;;;5086395;28;20070;-65
2023/01/22 05:36:34;;;;;;;5.93;2.67;;;1.50;99.90;;;;;;5087590;28;20051;-64
2023/01/22 05:39:00;;;;;;;4.57;2.40;;;1.50;99.90;;;;;;5081758;28;21520;-64
2023/01/22 05:41:25;;;;;;;5.60;2.90;;;1.50;99.90;;;;;;5077633;28;20483;-64
2023/01/22 05:43:51;;;;;;;7.77;2.60;;;1.50;99.90;;;;;;5080096;28;20040;-65
2023/01/22 05:46:16;;;;;;;5.60;2.40;;;1.50;99.90;;;;;;5071214;28;20140;-64
2023/01/22 05:48:42;;;;;;;5.43;2.73;;;1.50;99.90;;;;;;5085808;28;20090;-64
2023/01/22 05:51:09;;;;;;;4.00;2.00;;;1.50;99.90;;;;;;5081268;28;20070;-65
2023/01/22 05:53:35;;;;;;;6.78;2.50;;;1.60;99.90;;;;;;5085946;28;20047;-64
2023/01/22 05:56:02;;;;;;;4.50;2.73;;;1.50;99.90;;;;;;5086491;28;20035;-64
2023/01/22 05:58:29;;;;;;;6.32;2.60;;;1.50;99.90;;;;;;5078816;28;20040;-64
2023/01/22 06:00:54;;;;;;;4.38;2.72;;;1.50;99.90;;;;;;5075425;28;20055;-65
2023/01/22 06:03:20;;;;;;;3.87;2.13;;;1.50;99.90;;;;;;5083053;28;20066;-65
2023/01/22 06:05:46;;;;;;;4.73;2.30;;;1.50;99.90;;;;;;5085385;28;20702;-65
2023/01/22 06:08:11;;;;;;;5.60;2.73;;;1.60;99.90;;;;;;5086245;28;20506;-64
2023/01/22 06:10:37;;;;;;;5.97;2.10;;;1.60;99.90;;;;;;5083586;28;20032;-65
2023/01/22 06:13:03;;;;;;;5.87;2.00;;;1.60;99.90;;;;;;5080732;28;20068;-65
2023/01/22 06:15:28;;;;;;;4.57;2.10;;;1.60;99.90;;;;;;5084037;28;20135;-65
2023/01/22 06:17:59;;;;;;;3.93;2.27;;;1.60;99.90;;;;;;5083549;28;20075;-64
2023/01/22 06:20:25;;;;;;;5.00;2.58;;;1.60;99.90;;;;;;5081606;28;20131;-65
2023/01/22 06:22:51;;;;;;;4.20;2.40;;;1.60;99.90;;;;;;5079588;28;20537;-64
2023/01/22 06:25:17;;;;;;;2.88;1.80;;;1.60;99.90;;;;;;5090844;28;20043;-65
2023/01/22 06:27:42;;;;;;;4.43;2.30;;;1.60;99.90;;;;;;5084923;28;20040;-65
2023/01/22 06:30:09;;;;;;;4.03;2.03;;;1.60;99.90;;;;;;5085417;28;20063;-65
2023/01/22 06:32:34;;;;;;;4.40;2.33;;;1.60;99.90;;;;;;5082379;28;20078;-65
2023/01/22 06:35:00;;;;;;;4.90;2.60;;;1.60;99.90;;;;;;5085256;28;20071;-65
2023/01/22 06:37:25;;;;;;;2.60;1.60;;;1.60;99.90;;;;;;5083810;28;20040;-65
2023/01/22 06:39:51;;;;;;;5.23;2.27;;;1.60;99.90;;;;;;5080957;28;20040;-65
2023/01/22 06:42:17;;;;;;;4.07;1.90;;;1.60;99.90;;;;;;5079738;28;20120;-65
2023/01/22 06:44:42;;;;;;;3.47;1.63;;;1.60;99.90;;;;;;5086072;28;20453;-65
2023/01/22 06:47:08;;;;;;;3.60;2.00;;;1.60;99.90;;;;;;5080898;28;20048;-68
2023/01/22 06:49:33;;;;;;;3.30;1.83;;;1.60;99.90;;;;;;5060414;28;20521;-65
2023/01/22 06:51:59;;;;;;;3.40;1.70;;;1.60;99.90;;;;;;5080846;28;20043;-65
2023/01/22 06:54:25;;;;;;;5.23;2.40;;;1.70;99.90;;;;;;5085472;28;20520;-65
2023/01/22 06:56:50;;;;;;;3.77;1.77;;;1.60;99.90;;;;;;5079719;28;20469;-65
2023/01/22 06:59:16;;;;;;;3.53;2.00;;;1.70;99.90;;;;;;5086995;22;20053;-71
2023/01/22 07:01:42;;;;;;;2.47;1.80;;;1.70;99.90;;;;;;5064431;28;20028;-71
2023/01/22 07:04:07;;;;;;;4.30;2.10;;;1.70;99.90;;;;;;5069522;28;20048;-71
2023/01/22 07:06:33;;;;;;;3.20;1.70;;;1.60;99.90;;;;;;5046040;28;20037;-71
2023/01/22 07:08:58;;;;;;;2.67;1.83;;;1.60;99.90;;;;;;5040619;28;20044;-71
2023/01/22 07:11:24;;;;;;;6.77;1.97;;;1.60;99.90;;;;;;5043135;28;20044;-71
2023/01/22 07:13:50;;;;;;;3.30;1.80;;;1.70;99.90;;;;;;5048804;28;20048;-71
2023/01/22 07:16:15;;;;;;;5.87;1.93;;;1.70;99.90;;;;;;5040083;28;20048;-71
2023/01/22 07:18:41;;;;;;;3.63;1.60;;;1.70;99.90;;;;;;5049079;28;20076;-71
2023/01/22 07:21:06;;;;;;;9.27;2.13;;;1.60;99.90;;;;;;5046412;28;20275;-71
2023/01/22 07:23:32;;;;;;;4.40;1.80;;;1.70;99.90;;;;;;5039213;28;20379;-72
2023/01/22 07:25:58;;;;;;;3.57;2.00;;;1.70;99.90;;;;;;5039510;28;20478;-71
2023/01/22 07:28:24;;;;;;;6.80;1.90;;;1.70;99.90;;;;;;5040636;28;20048;-71
2023/01/22 07:30:49;;;;;;;4.60;2.13;;;1.60;99.90;;;;;;5039856;28;20124;-71
2023/01/22 07:33:15;;;;;;;3.03;1.93;;;1.60;99.90;;;;;;5043753;28;20041;-71
2023/01/22 07:35:41;;;;;;;4.50;2.33;;;1.70;99.90;;;;;;5044812;28;20080;-71
2023/01/22 07:38:07;;;;;;;4.37;2.17;;;1.70;99.90;;;;;;5047979;28;20140;-71
2023/01/22 07:40:33;;;;;;;5.82;2.17;;;1.70;99.90;;;;;;5060393;28;22076;-71
2023/01/22 07:43:03;;;;;;;3.40;1.80;;;1.70;99.90;;;;;;5043163;28;20064;-72
2023/01/22 07:45:29;;;;;;;4.47;2.08;;;1.70;99.90;;;;;;5057712;28;20083;-72
2023/01/22 07:47:57;;;;;;;4.13;2.17;;;1.70;99.90;;;;;;5046639;28;20069;-71
2023/01/22 07:50:28;;;;;;;4.32;1.92;;;1.70;99.90;;;;;;5041373;28;20044;-71
2023/01/22 07:52:54;;;;;;;3.88;1.80;;;1.70;99.90;;;;;;5045907;28;20055;-71
2023/01/22 07:55:20;;;;;;;4.15;2.15;;;1.70;99.90;;;;;;5051880;28;20433;-71
2023/01/22 07:57:46;;;;;;;3.23;1.63;;;1.70;99.90;;;;;;5044769;28;20041;-71
2023/01/22 08:00:14;;;;;;;6.53;2.47;;;1.60;99.90;;;;;;5041538;28;20774;-71
2023/01/22 08:02:43;;;;;;;6.65;2.22;;;1.70;99.90;;;;;;5043513;28;20041;-71
2023/01/22 08:05:12;;;;;;;4.20;2.40;;;1.70;99.90;;;;;;5046092;28;20068;-71
2023/01/22 08:07:38;;;;;;;8.07;2.80;;;1.70;99.90;;;;;;5050079;28;20053;-71
2023/01/22 08:10:04;;;;;;;7.97;2.93;;;1.70;99.90;;;;;;5045804;28;20103;-71
2023/01/22 08:12:29;;;;;;;9.10;3.17;;;1.70;99.90;;;;;;5045041;28;20433;-71
2023/01/22 08:14:55;;;;;;;5.20;2.33;;;1.70;99.90;;;;;;5046886;28;20043;-71
2023/01/22 08:17:21;;;;;;;5.83;2.43;;;1.70;99.90;;;;;;5046032;28;20045;-71
2023/01/22 08:19:47;;;;;;;4.07;2.60;;;1.70;99.90;;;;;;5045560;28;20036;-71
2023/01/22 08:22:12;;;;;;;4.18;2.33;;;1.70;99.90;;;;;;5042364;28;20116;-71
2023/01/22 08:24:38;;;;;;;7.30;2.77;;;1.70;99.90;;;;;;5044296;28;20605;-71
2023/01/22 08:27:04;;;;;;;5.60;2.60;;;1.70;99.90;;;;;;5025730;28;20049;-71
2023/01/22 08:29:29;;;;;;;5.00;2.73;;;1.70;99.90;;;;;;5042810;28;20044;-71
2023/01/22 08:31:55;;;;;;;7.17;2.87;;;1.70;99.90;;;;;;5044091;28;20116;-71
2023/01/22 08:34:21;;;;;;;6.10;2.83;;;1.70;99.90;;;;;;5044697;28;20120;-71
2023/01/22 08:36:47;;;;;;;5.35;2.85;;;1.70;99.90;;;;;;5061133;28;20143;-71
2023/01/22 08:39:12;;;;;;;4.37;2.90;;;1.70;99.90;;;;;;5032589;28;20530;-71
2023/01/22 08:41:39;;;;;;;7.63;2.93;;;1.70;99.90;;;;;;5041192;28;20071;-71
2023/01/22 08:44:05;;;;;;;;;;;1.70;99.90;;;;;;5043444;28;20045;-71
2023/01/22 08:46:31;;;;;;;3.63;2.50;;;1.70;99.90;;;;;;5044645;28;20091;-71
2023/01/22 08:48:56;;;;;;;3.33;2.30;;;1.70;99.90;;;;;;5044774;28;20358;-71
2023/01/22 08:51:23;;;;;;;4.00;2.63;;;1.70;99.90;;;;;;5045264;28;20470;-71
2023/01/22 08:53:50;;;;;;;6.95;2.50;;;1.80;99.90;;;;;;5046182;28;20045;-71
2023/01/22 08:56:15;;;;;;;5.20;2.97;;;1.70;99.90;;;;;;5043463;28;20052;-72
2023/01/22 08:58:41;;;;;;;5.47;3.57;;;1.70;99.90;;;;;;5042292;28;20045;-71
2023/01/22 09:01:12;;;;;;;5.47;3.17;;;1.80;99.90;;;;;;5044718;28;20344;-71
2023/01/22 09:03:38;;;;;;;5.93;2.92;;;1.80;99.90;;;;;;5046476;28;20063;-72
2023/01/22 09:06:03;;;;;;;6.67;3.10;;;1.80;99.90;;;;;;5048460;28;20028;-71
2023/01/22 09:08:30;;;;;;;6.37;3.40;;;1.80;99.90;;;;;;5038638;28;20056;-71
2023/01/22 09:10:55;;;;;;;7.90;3.83;;;1.80;99.90;;;;;;5039142;28;20053;-71
2023/01/22 09:13:21;;;;;;;7.17;3.83;;;1.80;99.90;;;;;;5044827;28;20053;-71
2023/01/22 09:15:47;;;;;;;5.97;3.07;;;1.80;99.90;;;;;;5043987;28;20044;-71
2023/01/22 09:18:12;;;;;;;5.33;3.90;;;1.80;99.90;;;;;;5045232;28;20067;-71
2023/01/22 09:20:38;;;;;;;6.00;3.00;;;1.80;99.90;;;;;;5044476;28;20041;-71
2023/01/22 09:23:04;;;;;;;6.87;3.17;;;1.80;99.90;;;;;;5046029;28;20115;-71
2023/01/22 09:25:29;;;;;;;5.90;2.83;;;1.80;99.90;;;;;;5045031;28;20041;-71
2023/01/22 09:28:03;;;;;;;6.23;3.57;;;1.80;99.90;;;;;;5044642;28;20045;-71
2023/01/22 09:30:29;;;;;;;7.05;3.80;;;1.90;99.90;;;;;;5042494;28;20060;-71
2023/01/22 09:32:55;;;;;;;6.03;3.90;;;1.80;99.90;;;;;;5045553;28;20047;-71
2023/01/22 09:35:20;;;;;;;7.90;4.60;;;1.90;99.90;;;;;;5060806;28;20036;-71
2023/01/22 09:37:46;;;;;;;10.03;3.63;;;1.90;99.90;;;;;;5042075;28;20045;-71
2023/01/22 09:40:39;;;;;;;5.33;3.13;;;1.90;99.90;;;;;;5046274;28;20043;-71
2023/01/22 09:43:17;;;;;;;5.95;3.03;;;1.90;99.90;;;;;;5038733;28;20343;-71
2023/01/22 09:45:43;;;;;;;5.75;3.08;;;1.90;99.90;;;;;;5039258;28;20056;-71
2023/01/22 09:48:15;;;;;;;5.72;3.08;;;1.80;99.90;;;;;;5043222;28;20098;-71
2023/01/22 09:50:42;;;;;;;6.13;3.35;;;1.80;99.90;;;;;;5030658;28;20049;-71
2023/01/22 09:53:13;;;;;;;5.93;3.05;;;1.80;99.90;;;;;;5046593;28;20459;-71
2023/01/22 09:55:44;;;;;;;6.80;3.83;;;1.80;99.90;;;;;;5040897;28;20346;-71
2023/01/22 09:58:15;;;;;;;6.43;3.40;;;1.90;99.90;;;;;;5039737;28;20086;-71
2023/01/22 10:00:44;;;;;;;5.70;3.20;;;1.90;99.90;;;;;;5034870;28;20071;-71
2023/01/22 10:03:25;;;;;;;6.10;3.58;;;1.90;99.90;;;;;;5041748;28;20483;-71
2023/01/22 10:05:56;;;;;;;5.15;3.38;;;1.90;99.90;;;;;;5045913;28;20111;-71
2023/01/22 10:08:32;;;;;;;6.45;3.25;;;2.00;99.90;;;;;;5045030;28;20063;-71
2023/01/22 10:10:59;;;;;;;7.07;3.65;;;2.00;99.90;;;;;;5035564;28;20505;-71
2023/01/22 10:13:32;;;;;;;4.78;3.00;;;2.10;99.90;;;;;;5047744;28;20533;-71
2023/01/22 10:15:58;;;;;;;6.70;3.35;;;2.10;99.90;;;;;;5033326;28;20483;-71
2023/01/22 10:18:42;;;;;;;5.50;3.13;;;2.10;99.90;;;;;;5046367;28;20318;-71
2023/01/22 10:21:22;;;;;;;5.40;3.22;;;2.20;99.90;;;;;;5039878;28;20303;-71
2023/01/22 10:23:49;;;;;;;5.55;3.30;;;2.20;99.90;;;;;;5047287;28;20438;-71
2023/01/22 10:26:23;;;;;;;8.50;4.45;;;2.30;99.90;;;;;;5050362;28;20117;-71
2023/01/22 10:28:55;;;;;;;5.72;3.10;;;2.30;99.90;;;;;;5058285;28;20535;-71
2023/01/22 10:31:27;;;;;;;4.35;2.97;;;2.30;99.90;;;;;;5042573;28;20045;-71
2023/01/22 10:34:18;;;;;;;9.23;3.28;;;2.40;99.90;;;;;;5039318;28;20075;-71
2023/01/22 10:36:51;;;;;;;6.22;2.80;;;2.30;99.90;;;;;;5027416;28;20061;-71
2023/01/22 10:39:18;;;;;;;5.50;2.88;;;2.30;99.90;;;;;;5042528;28;20047;-71
2023/01/22 10:41:46;;;;;;;7.30;2.72;;;2.30;99.90;;;;;;5045531;28;20109;-71
2023/01/22 10:44:19;;;;;;;6.45;2.95;;;2.30;99.90;;;;;;5041181;28;20129;-71
2023/01/22 10:46:45;;;;;;;4.55;2.40;;;2.30;99.90;;;;;;5037098;28;20037;-71
2023/01/22 10:49:23;;;;;;;5.45;2.80;;;2.40;99.90;;;;;;5044648;28;20466;-71
2023/01/22 10:51:56;;;;;;;5.68;2.90;;;2.40;99.90;;;;;;5064118;28;20092;-71
2023/01/22 10:54:38;;;;;;;5.78;3.13;;;2.50;99.90;;;;;;5059299;28;20076;-71
2023/01/22 10:57:23;;;;;;;6.25;2.85;;;2.40;99.90;;;;;;5041880;28;20040;-71
2023/01/22 11:00:07;;;;;;;5.70;3.33;;;2.50;99.90;;;;;;5041862;28;20449;-71
2023/01/22 11:02:34;;;;;;;4.45;2.42;;;2.50;99.90;;;;;;5045235;28;20044;-71
2023/01/22 11:05:18;;;;;;;7.85;3.10;;;2.50;99.90;;;;;;5043582;28;20033;-71
2023/01/22 11:07:46;;;;;;;10.65;3.53;;;2.60;99.90;;;;;;5043921;28;20060;-71
2023/01/22 11:10:36;;;;;;;6.30;3.40;;;2.60;99.90;;;;;;5038405;28;20569;-71
2023/01/22 11:13:14;;;;;;;8.27;3.55;;;2.60;99.90;;;;;;5047378;28;20109;-70
2023/01/22 11:16:09;;;;;;;7.15;3.58;;;2.60;99.90;;;;;;5052319;28;20072;-70
2023/01/22 11:18:44;;;;;;;7.43;3.58;;;2.70;99.90;;;;;;5051101;28;20052;-71
2023/01/22 11:21:16;;;;;;;6.70;2.83;;;2.70;99.90;;;;;;5049406;28;20115;-72
2023/01/22 11:24:01;;;;;;;5.25;2.85;;;2.70;99.90;;;;;;5033704;28;20044;-72
2023/01/22 11:26:47;;;;;;;6.38;2.78;;;2.70;99.90;;;;;;5051165;28;20120;-71
2023/01/22 11:29:49;;;;;;;5.25;2.88;;;2.80;99.90;;;;;;5050818;28;20036;-71
2023/01/22 11:32:33;;;;;;;5.82;3.35;;;2.80;99.90;;;;;;5049337;28;20060;-71
2023/01/22 11:35:10;;;;;;;5.80;3.20;;;2.90;99.90;;;;;;5048936;28;20132;-72
2023/01/22 11:38:09;;;;;;;8.77;3.38;;;2.90;99.90;;;;;;5040121;28;20107;-71
2023/01/22 11:40:52;;;;;;;7.47;3.40;;;3.00;99.90;;;;;;5039505;28;20445;-72
2023/01/22 11:43:26;;;;;;;7.45;2.80;;;3.00;99.90;;;;;;5034804;28;20469;-72
2023/01/22 11:46:08;;;;;;;5.15;2.85;;;3.00;99.90;;;;;;5044315;28;20037;-72
2023/01/22 11:48:33;;;;;;;7.03;3.10;;;3.00;99.90;;;;;;5035866;28;20048;-72
2023/01/22 11:51:30;;;;;;;6.20;3.17;;;3.00;99.90;;;;;;5044348;28;20124;-72
2023/01/22 11:54:14;;;;;;;5.30;3.00;;;3.00;99.90;;;;;;5053779;28;20053;-72
2023/01/22 11:57:27;;;;;;;7.20;3.38;;;3.00;99.90;;;;;;5040872;28;20538;-72
2023/01/22 12:00:31;;;;;;;5.20;3.40;;;3.10;99.90;;;;;;5037585;28;20045;-72
2023/01/22 12:03:21;;;;;;;5.38;3.13;;;3.10;99.90;;;;;;5039007;28;20486;-72
2023/01/22 12:06:01;;;;;;;7.20;2.90;;;3.20;99.90;;;;;;5042909;28;20037;-72
2023/01/22 12:08:50;;;;;;;5.88;3.25;;;3.20;99.90;;;;;;5043502;28;20044;-72
2023/01/22 12:11:28;;;;;;;9.55;3.58;;;3.20;99.90;;;;;;5041362;28;20139;-72
2023/01/22 12:14:27;;;;;;;6.32;3.08;;;3.20;99.90;;;;;;5035615;28;20394;-72
2023/01/22 12:17:03;;;;;;;8.15;3.22;;;3.30;99.90;;;;;;5041310;28;20402;-72
2023/01/22 12:19:39;;;;;;;6.90;3.20;;;3.20;99.90;;;;;;5041106;28;20036;-72
2023/01/22 12:22:22;;;;;;;7.07;3.03;;;3.20;99.90;;;;;;5040118;28;20041;-72
2023/01/22 12:25:13;;;;;;;5.95;2.50;;;3.20;99.90;;;;;;5040977;28;20048;-72
2023/01/22 12:27:46;;;;;;;9.90;3.90;;;3.20;99.90;;;;;;5039199;28;20045;-72
2023/01/22 12:30:21;;;;;;;7.90;2.80;;;3.30;99.90;;;;;;5053735;28;20500;-72
2023/01/22 12:32:58;;;;;;;5.10;2.88;;;3.30;99.90;;;;;;5041736;28;20494;-72
2023/01/22 12:35:26;;;;;;;5.75;3.40;;;3.30;99.90;;;;;;5046562;28;20045;-72
2023/01/22 12:38:17;;;;;;;6.35;2.85;;;3.30;99.90;;;;;;5020396;28;20049;-72
2023/01/22 12:41:02;;;;;;;5.72;2.83;;;3.30;99.90;;;;;;5032150;28;20782;-72
2023/01/22 12:43:31;;;;;;;5.43;3.17;;;3.30;99.90;;;;;;5035374;28;20482;-72
2023/01/22 12:46:04;;;;;;;7.38;2.75;;;3.30;99.90;;;;;;5039914;28;20373;-72
2023/01/22 12:48:55;;;;;;;5.53;3.33;;;3.30;99.90;;;;;;5041967;28;20048;-72
2023/01/22 12:51:43;;;;;;;5.47;3.10;;;3.30;99.90;;;;;;5034019;28;20666;-72
2023/01/22 12:54:08;;;;;;;;;;;3.30;99.90;;;;;;5042630;28;20040;-71
2023/01/22 12:56:34;;;;;;;8.20;3.13;;;3.30;99.90;;;;;;5041163;28;20303;-71
2023/01/22 13:01:33;;;;;;;5.68;3.03;;;3.30;99.90;;;;;;5012541;28;20042;-65
2023/01/22 13:04:03;;;;;;;6.15;3.08;;;3.40;99.90;;;;;;5018141;28;20682;-67
2023/01/22 13:06:40;;;;;;;6.20;2.70;;;3.40;99.90;;;;;;5013532;28;20030;-67
2023/01/22 13:09:24;;;;;;;8.15;3.22;;;3.40;99.90;;;;;;5014711;28;20432;-67
2023/01/22 13:11:50;;;;;;;5.97;2.85;;;3.40;99.90;;;;;;5020325;28;20068;-67
2023/01/22 13:14:21;;;;;;;6.40;3.10;;;3.40;99.90;;;;;;5020586;28;20049;-67
2023/01/22 13:16:51;;;;;;;7.20;2.75;;;3.40;99.90;;;;;;5020266;28;20133;-67
2023/01/22 13:19:45;;;;;;;5.63;2.67;;;3.40;99.90;;;;;;5015099;28;20040;-67
2023/01/22 13:22:25;;;;;;;5.82;2.25;;;3.40;99.90;;;;;;5014391;28;20045;-67